SLVR/VVI METAR and TAF weather

Enter ICAO airport designator
Station Type Date Time Source
SLVR METAR 2019/08/24 22:00 UTC NOAA

SLVR 242200Z 32007KT 4000 FU NSC 30/16 Q1011


Station Type Date Time Source
SLVR Decoded METAR 2019/08/24 22:00 UTC NOAA

Station name not available
Aug 24, 2019 - 06:00 PM EDT / 2019.08.24 2200 UTC
Wind: from the NW (320 degrees) at 8 MPH (7 KT):0
Visibility: 2 mile(s):0
Weather: smoke
Temperature: 86 F (30 C)
Dew Point: 60 F (16 C)
Relative Humidity: 42%
Pressure (altimeter): 29.85 in. Hg (1011 hPa)
ob: SLVR 242200Z 32007KT 4000 FU NSC 30/16 Q1011
cycle: 22

Station Type Date Time Source
SLVR TAF 2019/08/24 18:39 UTC NOAA

TAF SLVR 241600Z 2418/2518 33005KT 6000 NSC TX33/2420Z TN21/2511Z
BECMG 2420/2423 33010G23KT 8000
BECMG 2504/2508 33010KT 6000 SCT070

Example: see airport list